W.w. Crum — WDB7252 — position and weather

sailwx.info

Track history (hours):
 
Tides and Currents Weather Stations Pressure Air Temp Water Temp Dewpoint Dewpoint Depression Visibility Wind Speed Wind Dir Waves Ship Positions

W.w. Crum

Owner: Magnolia Marine Transport Co, Vicksburg, MS. More information available from US FCC via Universal Licensing System and Coast Guard Vessel Documentation Center.

Last reported at 2017-Oct-17 04:13 UTC. Time now 2017-Oct-17 22:22 UTC.
Position N 31°59' W 091°06'.

Length 40 m; draft 2.7 m.

Type: Towing. MMSI: 366939330.

Date/timePositionNaut miles runAvg speedWind from/ knotsBaromVisibWave heightAir tempDewpointWater temp
2017-Oct-17 04:13N 31°59' W 091°06'2 8.9
2017-Oct-17 04:00N 32°01' W 091°05'6 7.2
2017-Oct-17 03:13N 32°06' W 091°06'2 7.6
2017-Oct-17 03:00N 32°08' W 091°06'4 8.6
2017-Oct-17 02:30N 32°07' W 091°01'5 9.4
2017-Oct-17 02:00N 32°12' W 090°59'5 9.4
2017-Oct-17 01:30N 32°16' W 090°57'4 8.8
2017-Oct-17 01:00N 32°20' W 090°54'1 2.0
2017-Oct-17 00:30N 32°21' W 090°54'0 0.1
2017-Oct-17 00:00N 32°21' W 090°54'0 0.3
2017-Oct-16 23:30N 32°20' W 090°54'0 0.2
2017-Oct-16 23:00N 32°21' W 090°54'2 3.2
2017-Oct-16 22:30N 32°22' W 090°53'1 2.9
2017-Oct-16 22:00N 32°23' W 090°54'0 0.9
2017-Oct-16 21:30N 32°23' W 090°54'0 0.0
2017-Oct-16 21:00N 32°23' W 090°54'1 2.0
2017-Oct-16 20:30N 32°23' W 090°53'0 0.2
2017-Oct-16 20:00N 32°23' W 090°53'0 0.6
2017-Oct-16 19:30N 32°23' W 090°53'1 1.6
2017-Oct-16 19:00N 32°22' W 090°53'2 3.7
2017-Oct-16 18:30N 32°20' W 090°54'0 0.2
2017-Oct-16 18:00N 32°20' W 090°54'3 6.2
2017-Oct-16 17:30N 32°18' W 090°56'3 5.8
2017-Oct-16 17:00N 32°16' W 090°58'3 6.2
2017-Oct-16 16:30N 32°13' W 090°59'3 6.1
2017-Oct-16 16:00N 32°10' W 091°00'3 5.6
2017-Oct-16 15:30N 32°07' W 091°02'3 1.6
2017-Oct-16 13:54N 32°08' W 091°05'2 4.6
2017-Oct-16 13:30N 32°07' W 091°07'4 5.6
2017-Oct-16 12:43N 32°04' W 091°03'1 6.1
2017-Oct-16 12:30N 32°02' W 091°04'120 2.4
2017-Oct-14 09:52N 30°02' W 090°50'  
Track history (hours):
 
Tides and Currents Weather Stations Pressure Air Temp Water Temp Dewpoint Dewpoint Depression Visibility Wind Speed Wind Dir Waves Ship Positions

W.w. Crum

Owner: Magnolia Marine Transport Co, Vicksburg, MS. More information available from US FCC via Universal Licensing System and Coast Guard Vessel Documentation Center.

Last reported at 2017-Oct-17 04:13 UTC. Time now 2017-Oct-17 22:22 UTC.
Position N 31°59' W 091°06'.

Length 40 m; draft 2.7 m.

Type: Towing. MMSI: 366939330.

Date/timePositionNaut miles runAvg speedWind from/ knotsBaromVisibWave heightAir tempDewpointWater temp
2017-Oct-17 04:13N 31°59' W 091°06'2 8.9
2017-Oct-17 04:00N 32°01' W 091°05'6 7.2
2017-Oct-17 03:13N 32°06' W 091°06'2 7.6
2017-Oct-17 03:00N 32°08' W 091°06'4 8.6
2017-Oct-17 02:30N 32°07' W 091°01'5 9.4
2017-Oct-17 02:00N 32°12' W 090°59'5 9.4
2017-Oct-17 01:30N 32°16' W 090°57'4 8.8
2017-Oct-17 01:00N 32°20' W 090°54'1 2.0
2017-Oct-17 00:30N 32°21' W 090°54'0 0.1
2017-Oct-17 00:00N 32°21' W 090°54'0 0.3
2017-Oct-16 23:30N 32°20' W 090°54'0 0.2
2017-Oct-16 23:00N 32°21' W 090°54'2 3.2
2017-Oct-16 22:30N 32°22' W 090°53'1 2.9
2017-Oct-16 22:00N 32°23' W 090°54'0 0.9
2017-Oct-16 21:30N 32°23' W 090°54'0 0.0
2017-Oct-16 21:00N 32°23' W 090°54'1 2.0
2017-Oct-16 20:30N 32°23' W 090°53'0 0.2
2017-Oct-16 20:00N 32°23' W 090°53'0 0.6
2017-Oct-16 19:30N 32°23' W 090°53'1 1.6
2017-Oct-16 19:00N 32°22' W 090°53'2 3.7
2017-Oct-16 18:30N 32°20' W 090°54'0 0.2
2017-Oct-16 18:00N 32°20' W 090°54'3 6.2
2017-Oct-16 17:30N 32°18' W 090°56'3 5.8
2017-Oct-16 17:00N 32°16' W 090°58'3 6.2
2017-Oct-16 16:30N 32°13' W 090°59'3 6.1
2017-Oct-16 16:00N 32°10' W 091°00'3 5.6
2017-Oct-16 15:30N 32°07' W 091°02'3 1.6
2017-Oct-16 13:54N 32°08' W 091°05'2 4.6
2017-Oct-16 13:30N 32°07' W 091°07'4 5.6
2017-Oct-16 12:43N 32°04' W 091°03'1 6.1
2017-Oct-16 12:30N 32°02' W 091°04'120 2.4
2017-Oct-14 09:52N 30°02' W 090°50'  

Dump ship's entire track history